Aviation Digital Data Service (ADDS)

Output produced by TAFs form (1009 UTC 18 January 2017)
found at http://aviationweather.gov/adds/tafs/
 
KTEX 180909Z 1809/1906 14006KT P6SM VCFG SKC 
     TEMPO 1812/1815 4SM BR BKN008 
     FM181800 32005KT P6SM FEW050 
     FM190000 VRB03KT P6SM SCT050